Elkview, West Virginia
Current Conditions -  °F | °C
As of 10:54 AM on Thursday 27 Nov 2014 (Local Time) from KCRW Reporting Station
Haze Haze  
Wind Chill: 29°   Ceiling: 1400
Heat Index: 34°   Visibility: 6mi
Dew Point: 28°   Wind: 6mph
Humidity: 79%   Direction: NA
Pressure: 30.18"   Gusts: NA
Location:  38.44°N, 81.48°W
Report Text: KCRW 271554Z VRB05KT 6SM HZ BKN014 OVC030 01/M02 A3018 RMK AO2 SLP225 CIG 012V017 T00111022
Loading
Personal Weather Stations






























Interactive Weather Map New forecast layout! Learn more

10-Day Weather Forecast

Advertisements
Track Severe Weather on mobile